sensor_id;sensor_type;location;lat;lon;timestamp;temperature;humidity
59128;DHT22;44912;52.754;5.994;2023-05-20T00:00:52;11.50;99.90
59128;DHT22;44912;52.754;5.994;2023-05-20T00:03:18;11.40;99.90
59128;DHT22;44912;52.754;5.994;2023-05-20T00:05:47;11.40;99.90
59128;DHT22;44912;52.754;5.994;2023-05-20T00:08:13;11.40;99.90
59128;DHT22;44912;52.754;5.994;2023-05-20T00:10:39;11.30;99.90
59128;DHT22;44912;52.754;5.994;2023-05-20T00:13:06;11.30;99.90
59128;DHT22;44912;52.754;5.994;2023-05-20T00:15:32;11.30;99.90
59128;DHT22;44912;52.754;5.994;2023-05-20T00:18:00;11.30;99.90
59128;DHT22;44912;52.754;5.994;2023-05-20T00:20:26;11.30;99.90
59128;DHT22;44912;52.754;5.994;2023-05-20T00:22:51;11.20;99.90
59128;DHT22;44912;52.754;5.994;2023-05-20T00:25:17;11.20;99.90
59128;DHT22;44912;52.754;5.994;2023-05-20T00:27:43;11.20;99.90
59128;DHT22;44912;52.754;5.994;2023-05-20T00:30:09;11.20;99.90
59128;DHT22;44912;52.754;5.994;2023-05-20T00:32:35;11.20;99.90
59128;DHT22;44912;52.754;5.994;2023-05-20T00:35:02;11.20;99.90
59128;DHT22;44912;52.754;5.994;2023-05-20T00:37:28;11.10;99.90
59128;DHT22;44912;52.754;5.994;2023-05-20T00:39:53;11.10;99.90
59128;DHT22;44912;52.754;5.994;2023-05-20T00:42:20;11.10;99.90
59128;DHT22;44912;52.754;5.994;2023-05-20T00:44:46;11.10;99.90
59128;DHT22;44912;52.754;5.994;2023-05-20T00:47:12;11.00;99.90
59128;DHT22;44912;52.754;5.994;2023-05-20T00:49:38;11.00;99.90
59128;DHT22;44912;52.754;5.994;2023-05-20T00:52:04;11.00;99.90
59128;DHT22;44912;52.754;5.994;2023-05-20T00:54:31;10.90;99.90
59128;DHT22;44912;52.754;5.994;2023-05-20T00:56:57;10.90;99.90
59128;DHT22;44912;52.754;5.994;2023-05-20T00:59:25;10.80;99.90
59128;DHT22;44912;52.754;5.994;2023-05-20T01:01:51;10.80;99.90
59128;DHT22;44912;52.754;5.994;2023-05-20T01:04:17;10.80;99.90
59128;DHT22;44912;52.754;5.994;2023-05-20T01:06:43;10.80;99.90
59128;DHT22;44912;52.754;5.994;2023-05-20T01:09:10;10.80;99.90
59128;DHT22;44912;52.754;5.994;2023-05-20T01:14:36;10.80;99.90
59128;DHT22;44912;52.754;5.994;2023-05-20T01:17:04;10.80;99.90
59128;DHT22;44912;52.754;5.994;2023-05-20T01:19:41;10.80;99.90
59128;DHT22;44912;52.754;5.994;2023-05-20T01:22:09;10.80;99.90
59128;DHT22;44912;52.754;5.994;2023-05-20T01:24:42;10.80;99.90
59128;DHT22;44912;52.754;5.994;2023-05-20T01:27:11;10.80;99.90
59128;DHT22;44912;52.754;5.994;2023-05-20T01:29:41;10.80;99.90
59128;DHT22;44912;52.754;5.994;2023-05-20T01:32:43;10.70;99.90
59128;DHT22;44912;52.754;5.994;2023-05-20T01:35:02;10.80;99.90
59128;DHT22;44912;52.754;5.994;2023-05-20T01:37:29;10.70;99.90
59128;DHT22;44912;52.754;5.994;2023-05-20T01:39:56;10.70;99.90
59128;DHT22;44912;52.754;5.994;2023-05-20T01:42:22;10.70;99.90
59128;DHT22;44912;52.754;5.994;2023-05-20T01:44:51;10.70;99.90
59128;DHT22;44912;52.754;5.994;2023-05-20T01:47:16;10.70;99.90
59128;DHT22;44912;52.754;5.994;2023-05-20T01:49:42;10.70;99.90
59128;DHT22;44912;52.754;5.994;2023-05-20T01:52:07;10.70;99.90
59128;DHT22;44912;52.754;5.994;2023-05-20T01:54:33;10.70;99.90
59128;DHT22;44912;52.754;5.994;2023-05-20T01:56:58;10.70;99.90
59128;DHT22;44912;52.754;5.994;2023-05-20T01:59:24;10.70;99.90
59128;DHT22;44912;52.754;5.994;2023-05-20T02:01:50;10.70;99.90
59128;DHT22;44912;52.754;5.994;2023-05-20T02:04:15;10.70;99.90
59128;DHT22;44912;52.754;5.994;2023-05-20T02:06:43;10.70;99.90
59128;DHT22;44912;52.754;5.994;2023-05-20T02:09:09;10.70;99.90
59128;DHT22;44912;52.754;5.994;2023-05-20T02:11:34;10.70;99.90
59128;DHT22;44912;52.754;5.994;2023-05-20T02:14:00;10.60;99.90
59128;DHT22;44912;52.754;5.994;2023-05-20T02:16:26;10.60;99.90
59128;DHT22;44912;52.754;5.994;2023-05-20T02:18:51;10.60;99.90
59128;DHT22;44912;52.754;5.994;2023-05-20T02:21:17;10.60;99.90
59128;DHT22;44912;52.754;5.994;2023-05-20T02:23:43;10.60;99.90
59128;DHT22;44912;52.754;5.994;2023-05-20T02:26:08;10.60;99.90
59128;DHT22;44912;52.754;5.994;2023-05-20T02:28:34;10.60;99.90
59128;DHT22;44912;52.754;5.994;2023-05-20T02:30:59;10.60;99.90
59128;DHT22;44912;52.754;5.994;2023-05-20T02:33:25;10.60;99.90
59128;DHT22;44912;52.754;5.994;2023-05-20T02:35:53;10.60;99.90
59128;DHT22;44912;52.754;5.994;2023-05-20T02:38:18;10.60;99.90
59128;DHT22;44912;52.754;5.994;2023-05-20T02:40:44;10.60;99.90
59128;DHT22;44912;52.754;5.994;2023-05-20T02:43:09;10.60;99.90
59128;DHT22;44912;52.754;5.994;2023-05-20T02:45:35;10.60;99.90
59128;DHT22;44912;52.754;5.994;2023-05-20T02:48:00;10.60;99.90
59128;DHT22;44912;52.754;5.994;2023-05-20T02:50:26;10.60;99.90
59128;DHT22;44912;52.754;5.994;2023-05-20T02:52:52;10.60;99.90
59128;DHT22;44912;52.754;5.994;2023-05-20T02:55:17;10.60;99.90
59128;DHT22;44912;52.754;5.994;2023-05-20T02:57:43;10.50;99.90
59128;DHT22;44912;52.754;5.994;2023-05-20T03:00:10;10.50;99.90
59128;DHT22;44912;52.754;5.994;2023-05-20T03:02:36;10.50;99.90
59128;DHT22;44912;52.754;5.994;2023-05-20T03:05:02;10.50;99.90
59128;DHT22;44912;52.754;5.994;2023-05-20T03:07:29;10.50;99.90
59128;DHT22;44912;52.754;5.994;2023-05-20T03:09:56;10.50;99.90
59128;DHT22;44912;52.754;5.994;2023-05-20T03:12:23;10.50;99.90
59128;DHT22;44912;52.754;5.994;2023-05-20T03:14:50;10.50;99.90
59128;DHT22;44912;52.754;5.994;2023-05-20T03:17:20;10.50;99.90
59128;DHT22;44912;52.754;5.994;2023-05-20T03:19:45;10.60;99.90
59128;DHT22;44912;52.754;5.994;2023-05-20T03:22:11;10.60;99.90
59128;DHT22;44912;52.754;5.994;2023-05-20T03:24:36;10.50;99.90
59128;DHT22;44912;52.754;5.994;2023-05-20T03:27:02;10.60;99.90
59128;DHT22;44912;52.754;5.994;2023-05-20T03:29:28;10.60;99.90
59128;DHT22;44912;52.754;5.994;2023-05-20T03:31:53;10.60;99.90
59128;DHT22;44912;52.754;5.994;2023-05-20T03:34:19;10.60;99.90
59128;DHT22;44912;52.754;5.994;2023-05-20T03:36:45;10.60;99.90
59128;DHT22;44912;52.754;5.994;2023-05-20T03:39:10;10.60;99.90
59128;DHT22;44912;52.754;5.994;2023-05-20T03:41:36;10.60;99.90
59128;DHT22;44912;52.754;5.994;2023-05-20T03:44:02;10.60;99.90
59128;DHT22;44912;52.754;5.994;2023-05-20T03:46:27;10.60;99.90
59128;DHT22;44912;52.754;5.994;2023-05-20T03:48:55;10.60;99.90
59128;DHT22;44912;52.754;5.994;2023-05-20T03:51:20;10.50;99.90
59128;DHT22;44912;52.754;5.994;2023-05-20T03:53:46;10.50;99.90
59128;DHT22;44912;52.754;5.994;2023-05-20T03:56:11;10.50;99.90
59128;DHT22;44912;52.754;5.994;2023-05-20T03:58:37;10.60;99.90
59128;DHT22;44912;52.754;5.994;2023-05-20T04:01:03;10.60;99.90
59128;DHT22;44912;52.754;5.994;2023-05-20T04:03:28;10.60;99.90
59128;DHT22;44912;52.754;5.994;2023-05-20T04:05:54;10.70;99.90
59128;DHT22;44912;52.754;5.994;2023-05-20T04:08:20;10.60;99.90
59128;DHT22;44912;52.754;5.994;2023-05-20T04:10:46;10.70;99.90
59128;DHT22;44912;52.754;5.994;2023-05-20T04:13:11;10.70;99.90
59128;DHT22;44912;52.754;5.994;2023-05-20T04:15:37;10.70;99.90
59128;DHT22;44912;52.754;5.994;2023-05-20T04:18:04;10.80;99.90
59128;DHT22;44912;52.754;5.994;2023-05-20T04:20:33;10.70;99.90
59128;DHT22;44912;52.754;5.994;2023-05-20T04:22:58;10.70;99.90
59128;DHT22;44912;52.754;5.994;2023-05-20T04:25:24;10.70;99.90
59128;DHT22;44912;52.754;5.994;2023-05-20T04:27:50;10.70;99.90
59128;DHT22;44912;52.754;5.994;2023-05-20T04:30:18;10.80;99.90
59128;DHT22;44912;52.754;5.994;2023-05-20T04:32:46;10.80;99.90
59128;DHT22;44912;52.754;5.994;2023-05-20T04:35:12;10.80;99.90
59128;DHT22;44912;52.754;5.994;2023-05-20T04:37:38;10.90;99.90
59128;DHT22;44912;52.754;5.994;2023-05-20T04:40:04;10.90;99.90
59128;DHT22;44912;52.754;5.994;2023-05-20T04:42:33;10.90;99.90
59128;DHT22;44912;52.754;5.994;2023-05-20T04:44:59;10.90;99.90
59128;DHT22;44912;52.754;5.994;2023-05-20T04:47:28;10.90;99.90
59128;DHT22;44912;52.754;5.994;2023-05-20T04:49:55;10.90;99.90
59128;DHT22;44912;52.754;5.994;2023-05-20T04:52:23;10.80;99.90
59128;DHT22;44912;52.754;5.994;2023-05-20T04:54:49;10.90;99.90
59128;DHT22;44912;52.754;5.994;2023-05-20T04:57:16;10.80;99.90
59128;DHT22;44912;52.754;5.994;2023-05-20T04:59:42;10.90;99.90
59128;DHT22;44912;52.754;5.994;2023-05-20T05:02:09;10.90;99.90
59128;DHT22;44912;52.754;5.994;2023-05-20T05:04:35;10.90;99.90
59128;DHT22;44912;52.754;5.994;2023-05-20T05:07:00;11.00;99.90
59128;DHT22;44912;52.754;5.994;2023-05-20T05:09:26;11.00;99.90
59128;DHT22;44912;52.754;5.994;2023-05-20T05:11:51;11.00;99.90
59128;DHT22;44912;52.754;5.994;2023-05-20T05:14:17;11.10;99.90
59128;DHT22;44912;52.754;5.994;2023-05-20T05:16:43;11.10;99.90
59128;DHT22;44912;52.754;5.994;2023-05-20T05:19:08;11.20;99.90
59128;DHT22;44912;52.754;5.994;2023-05-20T05:21:34;11.20;99.90
59128;DHT22;44912;52.754;5.994;2023-05-20T05:23:59;11.30;99.90
59128;DHT22;44912;52.754;5.994;2023-05-20T05:26:25;11.30;99.90
59128;DHT22;44912;52.754;5.994;2023-05-20T05:28:52;11.40;99.90
59128;DHT22;44912;52.754;5.994;2023-05-20T05:31:18;11.40;99.90
59128;DHT22;44912;52.754;5.994;2023-05-20T05:33:44;11.50;99.90
59128;DHT22;44912;52.754;5.994;2023-05-20T05:36:09;11.50;99.90
59128;DHT22;44912;52.754;5.994;2023-05-20T05:38:35;11.60;99.90
59128;DHT22;44912;52.754;5.994;2023-05-20T05:41:00;11.60;99.90
59128;DHT22;44912;52.754;5.994;2023-05-20T05:43:26;11.60;99.90
59128;DHT22;44912;52.754;5.994;2023-05-20T05:45:52;11.70;99.90
59128;DHT22;44912;52.754;5.994;2023-05-20T05:48:17;11.80;99.90
59128;DHT22;44912;52.754;5.994;2023-05-20T05:50:44;11.90;99.90
59128;DHT22;44912;52.754;5.994;2023-05-20T05:53:10;12.00;99.90
59128;DHT22;44912;52.754;5.994;2023-05-20T05:55:35;12.10;99.90
59128;DHT22;44912;52.754;5.994;2023-05-20T05:58:01;12.20;99.90
59128;DHT22;44912;52.754;5.994;2023-05-20T06:00:26;12.40;99.90
59128;DHT22;44912;52.754;5.994;2023-05-20T06:02:52;12.50;99.90
59128;DHT22;44912;52.754;5.994;2023-05-20T06:05:18;12.70;99.90
59128;DHT22;44912;52.754;5.994;2023-05-20T06:07:43;12.90;99.90
59128;DHT22;44912;52.754;5.994;2023-05-20T06:10:09;13.10;99.90
59128;DHT22;44912;52.754;5.994;2023-05-20T06:12:35;13.20;99.90
59128;DHT22;44912;52.754;5.994;2023-05-20T06:15:00;13.30;99.90
59128;DHT22;44912;52.754;5.994;2023-05-20T06:17:26;13.30;99.90
59128;DHT22;44912;52.754;5.994;2023-05-20T06:19:51;13.40;99.90
59128;DHT22;44912;52.754;5.994;2023-05-20T06:22:17;13.50;99.90
59128;DHT22;44912;52.754;5.994;2023-05-20T06:24:42;13.60;99.90
59128;DHT22;44912;52.754;5.994;2023-05-20T06:27:08;13.70;99.90
59128;DHT22;44912;52.754;5.994;2023-05-20T06:29:33;13.80;99.90
59128;DHT22;44912;52.754;5.994;2023-05-20T06:31:59;13.90;99.90
59128;DHT22;44912;52.754;5.994;2023-05-20T06:34:25;14.00;99.90
59128;DHT22;44912;52.754;5.994;2023-05-20T06:36:51;14.10;99.90
59128;DHT22;44912;52.754;5.994;2023-05-20T06:39:17;14.10;99.90
59128;DHT22;44912;52.754;5.994;2023-05-20T06:41:42;14.20;99.90
59128;DHT22;44912;52.754;5.994;2023-05-20T06:44:08;14.30;99.90
59128;DHT22;44912;52.754;5.994;2023-05-20T06:46:34;14.40;99.90
59128;DHT22;44912;52.754;5.994;2023-05-20T06:48:59;14.50;99.90
59128;DHT22;44912;52.754;5.994;2023-05-20T06:51:26;14.60;99.90
59128;DHT22;44912;52.754;5.994;2023-05-20T06:53:52;14.70;99.90
59128;DHT22;44912;52.754;5.994;2023-05-20T06:56:18;14.80;99.90
59128;DHT22;44912;52.754;5.994;2023-05-20T06:58:44;14.80;99.90
59128;DHT22;44912;52.754;5.994;2023-05-20T07:01:09;14.90;99.90
59128;DHT22;44912;52.754;5.994;2023-05-20T07:03:35;15.00;99.90
59128;DHT22;44912;52.754;5.994;2023-05-20T07:06:00;15.10;99.90
59128;DHT22;44912;52.754;5.994;2023-05-20T07:08:26;15.20;99.90
59128;DHT22;44912;52.754;5.994;2023-05-20T07:10:54;15.20;99.90
59128;DHT22;44912;52.754;5.994;2023-05-20T07:13:20;15.30;99.90
59128;DHT22;44912;52.754;5.994;2023-05-20T07:15:48;15.40;99.90
59128;DHT22;44912;52.754;5.994;2023-05-20T07:18:14;15.40;99.90
59128;DHT22;44912;52.754;5.994;2023-05-20T07:20:40;15.50;99.90
59128;DHT22;44912;52.754;5.994;2023-05-20T07:23:06;15.60;99.90
59128;DHT22;44912;52.754;5.994;2023-05-20T07:25:31;15.70;99.90
59128;DHT22;44912;52.754;5.994;2023-05-20T07:27:57;15.80;99.90
59128;DHT22;44912;52.754;5.994;2023-05-20T07:30:24;15.90;99.90
59128;DHT22;44912;52.754;5.994;2023-05-20T07:32:49;16.10;99.90
59128;DHT22;44912;52.754;5.994;2023-05-20T07:35:15;16.10;99.90
59128;DHT22;44912;52.754;5.994;2023-05-20T07:37:40;16.20;99.90
59128;DHT22;44912;52.754;5.994;2023-05-20T07:40:06;16.30;99.90
59128;DHT22;44912;52.754;5.994;2023-05-20T07:42:32;16.40;99.90
59128;DHT22;44912;52.754;5.994;2023-05-20T07:44:58;16.50;99.90
59128;DHT22;44912;52.754;5.994;2023-05-20T07:47:24;16.60;99.90
59128;DHT22;44912;52.754;5.994;2023-05-20T07:49:49;16.80;99.90
59128;DHT22;44912;52.754;5.994;2023-05-20T07:52:15;16.90;99.90
59128;DHT22;44912;52.754;5.994;2023-05-20T07:54:40;17.00;99.90
59128;DHT22;44912;52.754;5.994;2023-05-20T07:57:06;17.10;99.90
59128;DHT22;44912;52.754;5.994;2023-05-20T07:59:31;17.30;99.90
59128;DHT22;44912;52.754;5.994;2023-05-20T08:01:57;17.40;99.90
59128;DHT22;44912;52.754;5.994;2023-05-20T08:04:23;17.60;99.90
59128;DHT22;44912;52.754;5.994;2023-05-20T08:06:49;17.70;99.90
59128;DHT22;44912;52.754;5.994;2023-05-20T08:09:14;17.80;99.90
59128;DHT22;44912;52.754;5.994;2023-05-20T08:11:40;18.00;99.90
59128;DHT22;44912;52.754;5.994;2023-05-20T08:14:06;18.20;99.90
59128;DHT22;44912;52.754;5.994;2023-05-20T08:16:31;18.20;99.90
59128;DHT22;44912;52.754;5.994;2023-05-20T08:18:57;18.30;99.90
59128;DHT22;44912;52.754;5.994;2023-05-20T08:21:22;18.40;99.90
59128;DHT22;44912;52.754;5.994;2023-05-20T08:23:48;18.60;99.90
59128;DHT22;44912;52.754;5.994;2023-05-20T08:26:14;18.70;99.90
59128;DHT22;44912;52.754;5.994;2023-05-20T08:28:39;18.70;99.90
59128;DHT22;44912;52.754;5.994;2023-05-20T08:31:05;18.70;99.90
59128;DHT22;44912;52.754;5.994;2023-05-20T08:33:31;18.70;99.90
59128;DHT22;44912;52.754;5.994;2023-05-20T08:35:56;18.70;99.90
59128;DHT22;44912;52.754;5.994;2023-05-20T08:38:22;18.70;99.90
59128;DHT22;44912;52.754;5.994;2023-05-20T08:40:55;18.90;99.90
59128;DHT22;44912;52.754;5.994;2023-05-20T08:43:22;18.90;99.90
59128;DHT22;44912;52.754;5.994;2023-05-20T08:45:48;19.00;99.90
59128;DHT22;44912;52.754;5.994;2023-05-20T08:48:16;19.00;99.90
59128;DHT22;44912;52.754;5.994;2023-05-20T08:50:42;19.10;99.90
59128;DHT22;44912;52.754;5.994;2023-05-20T08:53:08;19.20;99.90
59128;DHT22;44912;52.754;5.994;2023-05-20T08:55:41;19.20;99.90
59128;DHT22;44912;52.754;5.994;2023-05-20T08:58:08;19.40;99.90
59128;DHT22;44912;52.754;5.994;2023-05-20T09:00:34;19.60;99.90
59128;DHT22;44912;52.754;5.994;2023-05-20T09:03:00;19.80;99.90
59128;DHT22;44912;52.754;5.994;2023-05-20T09:05:26;19.80;99.90
59128;DHT22;44912;52.754;5.994;2023-05-20T09:07:52;19.90;99.90
59128;DHT22;44912;52.754;5.994;2023-05-20T09:10:18;19.90;99.90
59128;DHT22;44912;52.754;5.994;2023-05-20T09:12:44;20.00;99.90
59128;DHT22;44912;52.754;5.994;2023-05-20T09:15:10;20.00;99.90
59128;DHT22;44912;52.754;5.994;2023-05-20T09:17:36;20.00;99.90
59128;DHT22;44912;52.754;5.994;2023-05-20T09:20:09;19.90;99.90
59128;DHT22;44912;52.754;5.994;2023-05-20T09:22:35;19.80;99.90
59128;DHT22;44912;52.754;5.994;2023-05-20T09:25:03;19.80;99.90
59128;DHT22;44912;52.754;5.994;2023-05-20T09:27:28;19.90;99.90
59128;DHT22;44912;52.754;5.994;2023-05-20T09:29:54;20.00;99.90
59128;DHT22;44912;52.754;5.994;2023-05-20T09:32:20;20.10;99.90
59128;DHT22;44912;52.754;5.994;2023-05-20T09:34:48;20.30;99.90
59128;DHT22;44912;52.754;5.994;2023-05-20T09:37:17;20.40;99.90
59128;DHT22;44912;52.754;5.994;2023-05-20T09:39:54;20.40;99.90
59128;DHT22;44912;52.754;5.994;2023-05-20T09:42:23;20.60;99.90
59128;DHT22;44912;52.754;5.994;2023-05-20T09:44:52;20.70;99.90
59128;DHT22;44912;52.754;5.994;2023-05-20T09:47:19;20.90;99.90
59128;DHT22;44912;52.754;5.994;2023-05-20T09:49:45;20.90;99.90
59128;DHT22;44912;52.754;5.994;2023-05-20T09:52:14;20.90;99.90
59128;DHT22;44912;52.754;5.994;2023-05-20T09:54:39;21.00;99.90
59128;DHT22;44912;52.754;5.994;2023-05-20T09:57:06;21.00;99.90
59128;DHT22;44912;52.754;5.994;2023-05-20T09:59:32;21.00;99.90
59128;DHT22;44912;52.754;5.994;2023-05-20T10:01:59;21.00;99.90
59128;DHT22;44912;52.754;5.994;2023-05-20T10:04:26;21.10;99.90
59128;DHT22;44912;52.754;5.994;2023-05-20T10:07:32;21.10;99.90
59128;DHT22;44912;52.754;5.994;2023-05-20T10:10:11;21.00;99.90
59128;DHT22;44912;52.754;5.994;2023-05-20T10:15:15;20.80;99.90
59128;DHT22;44912;52.754;5.994;2023-05-20T10:17:54;20.90;99.90
59128;DHT22;44912;52.754;5.994;2023-05-20T10:20:22;20.70;99.90
59128;DHT22;44912;52.754;5.994;2023-05-20T10:22:55;20.40;99.90
59128;DHT22;44912;52.754;5.994;2023-05-20T10:25:26;20.30;99.90
59128;DHT22;44912;52.754;5.994;2023-05-20T10:28:02;20.40;99.90
59128;DHT22;44912;52.754;5.994;2023-05-20T10:30:28;20.30;99.90
59128;DHT22;44912;52.754;5.994;2023-05-20T10:32:56;20.00;99.90
59128;DHT22;44912;52.754;5.994;2023-05-20T10:35:23;19.90;99.90
59128;DHT22;44912;52.754;5.994;2023-05-20T10:37:51;20.00;99.90
59128;DHT22;44912;52.754;5.994;2023-05-20T10:40:18;20.20;99.90
59128;DHT22;44912;52.754;5.994;2023-05-20T10:42:44;20.30;99.90
59128;DHT22;44912;52.754;5.994;2023-05-20T10:45:11;20.40;99.90
59128;DHT22;44912;52.754;5.994;2023-05-20T10:47:41;20.70;99.90
59128;DHT22;44912;52.754;5.994;2023-05-20T10:50:33;21.00;99.90
59128;DHT22;44912;52.754;5.994;2023-05-20T10:53:06;21.30;99.90
59128;DHT22;44912;52.754;5.994;2023-05-20T10:55:37;21.60;99.90
59128;DHT22;44912;52.754;5.994;2023-05-20T10:58:03;21.80;99.90
59128;DHT22;44912;52.754;5.994;2023-05-20T11:00:30;21.80;99.90
59128;DHT22;44912;52.754;5.994;2023-05-20T11:02:56;21.80;99.90
59128;DHT22;44912;52.754;5.994;2023-05-20T11:05:22;22.00;99.90
59128;DHT22;44912;52.754;5.994;2023-05-20T11:07:47;22.10;99.90
59128;DHT22;44912;52.754;5.994;2023-05-20T11:10:13;22.00;99.90
59128;DHT22;44912;52.754;5.994;2023-05-20T11:12:38;21.90;99.90
59128;DHT22;44912;52.754;5.994;2023-05-20T11:15:04;21.70;99.90
59128;DHT22;44912;52.754;5.994;2023-05-20T11:17:30;21.30;99.90
59128;DHT22;44912;52.754;5.994;2023-05-20T11:19:55;21.00;99.90
59128;DHT22;44912;52.754;5.994;2023-05-20T11:22:25;20.80;99.90
59128;DHT22;44912;52.754;5.994;2023-05-20T11:24:50;20.70;99.90
59128;DHT22;44912;52.754;5.994;2023-05-20T11:27:16;20.70;99.90
59128;DHT22;44912;52.754;5.994;2023-05-20T11:29:41;20.80;99.90
59128;DHT22;44912;52.754;5.994;2023-05-20T11:32:07;20.90;99.90
59128;DHT22;44912;52.754;5.994;2023-05-20T11:34:34;21.10;99.90
59128;DHT22;44912;52.754;5.994;2023-05-20T11:37:00;21.40;99.90
59128;DHT22;44912;52.754;5.994;2023-05-20T11:39:29;21.80;99.90
59128;DHT22;44912;52.754;5.994;2023-05-20T11:41:55;22.10;99.90
59128;DHT22;44912;52.754;5.994;2023-05-20T11:44:20;22.30;99.90
59128;DHT22;44912;52.754;5.994;2023-05-20T11:46:46;22.50;99.90
59128;DHT22;44912;52.754;5.994;2023-05-20T11:49:13;22.50;99.90
59128;DHT22;44912;52.754;5.994;2023-05-20T11:51:39;22.70;99.90
59128;DHT22;44912;52.754;5.994;2023-05-20T11:54:06;22.90;99.90
59128;DHT22;44912;52.754;5.994;2023-05-20T11:56:33;23.00;99.90
59128;DHT22;44912;52.754;5.994;2023-05-20T11:59:00;23.10;99.90
59128;DHT22;44912;52.754;5.994;2023-05-20T12:01:29;23.00;99.90
59128;DHT22;44912;52.754;5.994;2023-05-20T12:03:55;22.80;99.90
59128;DHT22;44912;52.754;5.994;2023-05-20T12:06:20;22.50;99.90
59128;DHT22;44912;52.754;5.994;2023-05-20T12:08:46;22.50;99.90
59128;DHT22;44912;52.754;5.994;2023-05-20T12:11:12;22.60;99.90
59128;DHT22;44912;52.754;5.994;2023-05-20T12:13:38;22.70;99.90
59128;DHT22;44912;52.754;5.994;2023-05-20T12:16:04;22.80;99.90
59128;DHT22;44912;52.754;5.994;2023-05-20T12:18:31;23.10;99.90
59128;DHT22;44912;52.754;5.994;2023-05-20T12:21:00;23.20;99.90
59128;DHT22;44912;52.754;5.994;2023-05-20T12:23:25;23.20;99.90
59128;DHT22;44912;52.754;5.994;2023-05-20T12:25:51;23.00;99.90
59128;DHT22;44912;52.754;5.994;2023-05-20T12:28:16;22.90;99.90
59128;DHT22;44912;52.754;5.994;2023-05-20T12:30:42;22.70;99.90
59128;DHT22;44912;52.754;5.994;2023-05-20T12:33:08;22.70;99.90
59128;DHT22;44912;52.754;5.994;2023-05-20T12:35:41;22.80;99.90
59128;DHT22;44912;52.754;5.994;2023-05-20T12:38:08;22.80;99.90
59128;DHT22;44912;52.754;5.994;2023-05-20T12:40:34;22.70;99.90
59128;DHT22;44912;52.754;5.994;2023-05-20T12:43:01;22.80;99.90
59128;DHT22;44912;52.754;5.994;2023-05-20T12:45:27;22.60;99.90
59128;DHT22;44912;52.754;5.994;2023-05-20T12:47:54;22.60;99.90
59128;DHT22;44912;52.754;5.994;2023-05-20T12:50:21;22.50;99.90
59128;DHT22;44912;52.754;5.994;2023-05-20T12:52:47;22.50;99.90
59128;DHT22;44912;52.754;5.994;2023-05-20T12:55:13;22.30;99.90
59128;DHT22;44912;52.754;5.994;2023-05-20T12:57:39;22.10;99.90
59128;DHT22;44912;52.754;5.994;2023-05-20T13:00:06;22.20;99.90
59128;DHT22;44912;52.754;5.994;2023-05-20T13:02:32;22.00;99.90
59128;DHT22;44912;52.754;5.994;2023-05-20T13:04:58;21.90;99.90
59128;DHT22;44912;52.754;5.994;2023-05-20T13:07:23;21.80;99.90
59128;DHT22;44912;52.754;5.994;2023-05-20T13:09:51;21.60;99.90
59128;DHT22;44912;52.754;5.994;2023-05-20T13:12:16;21.60;99.90
59128;DHT22;44912;52.754;5.994;2023-05-20T13:14:42;21.60;99.90
59128;DHT22;44912;52.754;5.994;2023-05-20T13:17:07;21.60;99.90
59128;DHT22;44912;52.754;5.994;2023-05-20T13:19:33;21.70;99.90
59128;DHT22;44912;52.754;5.994;2023-05-20T13:21:59;21.90;99.90
59128;DHT22;44912;52.754;5.994;2023-05-20T13:24:25;22.00;99.90
59128;DHT22;44912;52.754;5.994;2023-05-20T13:26:50;21.90;99.90
59128;DHT22;44912;52.754;5.994;2023-05-20T13:29:16;22.00;99.90
59128;DHT22;44912;52.754;5.994;2023-05-20T13:31:42;22.10;99.90
59128;DHT22;44912;52.754;5.994;2023-05-20T13:34:08;21.80;99.90
59128;DHT22;44912;52.754;5.994;2023-05-20T13:36:33;21.70;99.90
59128;DHT22;44912;52.754;5.994;2023-05-20T13:38:59;21.80;99.90
59128;DHT22;44912;52.754;5.994;2023-05-20T13:41:24;22.00;99.90
59128;DHT22;44912;52.754;5.994;2023-05-20T13:43:55;22.10;99.90
59128;DHT22;44912;52.754;5.994;2023-05-20T13:46:21;21.90;99.90
59128;DHT22;44912;52.754;5.994;2023-05-20T13:48:46;21.70;99.90
59128;DHT22;44912;52.754;5.994;2023-05-20T13:51:12;21.50;99.90
59128;DHT22;44912;52.754;5.994;2023-05-20T13:53:38;21.50;99.90
59128;DHT22;44912;52.754;5.994;2023-05-20T13:56:04;21.60;99.90
59128;DHT22;44912;52.754;5.994;2023-05-20T13:58:30;21.90;99.90
59128;DHT22;44912;52.754;5.994;2023-05-20T14:00:55;22.20;99.90
59128;DHT22;44912;52.754;5.994;2023-05-20T14:03:21;22.40;99.90
59128;DHT22;44912;52.754;5.994;2023-05-20T14:05:47;22.20;99.90
59128;DHT22;44912;52.754;5.994;2023-05-20T14:08:12;21.80;99.90
59128;DHT22;44912;52.754;5.994;2023-05-20T14:10:38;21.40;99.90
59128;DHT22;44912;52.754;5.994;2023-05-20T14:13:04;21.20;99.90
59128;DHT22;44912;52.754;5.994;2023-05-20T14:15:30;21.30;99.90
59128;DHT22;44912;52.754;5.994;2023-05-20T14:17:58;21.40;99.90
59128;DHT22;44912;52.754;5.994;2023-05-20T14:20:24;21.40;99.90
59128;DHT22;44912;52.754;5.994;2023-05-20T14:22:53;21.40;99.90
59128;DHT22;44912;52.754;5.994;2023-05-20T14:25:19;21.20;99.90
59128;DHT22;44912;52.754;5.994;2023-05-20T14:27:44;21.20;99.90
59128;DHT22;44912;52.754;5.994;2023-05-20T14:30:10;21.30;99.90
59128;DHT22;44912;52.754;5.994;2023-05-20T14:32:36;21.50;99.90
59128;DHT22;44912;52.754;5.994;2023-05-20T14:35:02;21.50;99.90
59128;DHT22;44912;52.754;5.994;2023-05-20T14:37:27;21.30;99.90
59128;DHT22;44912;52.754;5.994;2023-05-20T14:39:54;21.10;99.90
59128;DHT22;44912;52.754;5.994;2023-05-20T14:42:20;21.10;99.90
59128;DHT22;44912;52.754;5.994;2023-05-20T14:44:45;21.40;99.90
59128;DHT22;44912;52.754;5.994;2023-05-20T14:47:11;21.80;99.90
59128;DHT22;44912;52.754;5.994;2023-05-20T14:49:41;21.90;99.90
59128;DHT22;44912;52.754;5.994;2023-05-20T14:52:06;21.80;99.90
59128;DHT22;44912;52.754;5.994;2023-05-20T14:54:32;21.70;99.90
59128;DHT22;44912;52.754;5.994;2023-05-20T14:56:58;21.60;99.90
59128;DHT22;44912;52.754;5.994;2023-05-20T14:59:23;21.60;99.90
59128;DHT22;44912;52.754;5.994;2023-05-20T15:01:49;21.50;99.90
59128;DHT22;44912;52.754;5.994;2023-05-20T15:04:15;21.40;99.90
59128;DHT22;44912;52.754;5.994;2023-05-20T15:06:40;21.40;99.90
59128;DHT22;44912;52.754;5.994;2023-05-20T15:09:06;21.50;99.90
59128;DHT22;44912;52.754;5.994;2023-05-20T15:11:31;21.80;99.90
59128;DHT22;44912;52.754;5.994;2023-05-20T15:13:57;21.90;99.90
59128;DHT22;44912;52.754;5.994;2023-05-20T15:16:23;21.90;99.90
59128;DHT22;44912;52.754;5.994;2023-05-20T15:18:50;21.70;99.90
59128;DHT22;44912;52.754;5.994;2023-05-20T15:21:16;21.40;99.90
59128;DHT22;44912;52.754;5.994;2023-05-20T15:23:42;21.20;99.90
59128;DHT22;44912;52.754;5.994;2023-05-20T15:26:07;21.00;99.90
59128;DHT22;44912;52.754;5.994;2023-05-20T15:28:36;20.80;99.90
59128;DHT22;44912;52.754;5.994;2023-05-20T15:31:02;20.70;99.90